createdAt,value
2023-08-17T00:01:35.443Z,16.20
2023-08-17T00:04:20.695Z,16.30
2023-08-17T00:07:01.250Z,16.40
2023-08-17T00:09:48.527Z,16.50
2023-08-17T00:12:39.400Z,16.60
2023-08-17T00:15:22.654Z,16.60
2023-08-17T00:18:08.263Z,16.80
2023-08-17T00:20:49.580Z,16.90
2023-08-17T00:23:53.985Z,17.00
2023-08-17T00:26:43.766Z,17.10
2023-08-17T00:29:26.672Z,17.10
2023-08-17T00:32:05.547Z,17.30
2023-08-17T00:34:42.554Z,17.40
2023-08-17T00:37:24.779Z,17.50
2023-08-17T00:40:00.592Z,17.50
2023-08-17T00:42:50.479Z,17.70
2023-08-17T00:45:32.227Z,17.80
2023-08-17T00:48:17.274Z,17.90
2023-08-17T00:51:07.450Z,18.00
2023-08-17T00:53:54.418Z,18.20
2023-08-17T00:56:34.165Z,18.30
2023-08-17T00:59:23.098Z,18.40
2023-08-17T01:02:00.245Z,18.50
2023-08-17T01:04:47.861Z,18.60
2023-08-17T01:07:24.381Z,18.60
2023-08-17T01:10:11.528Z,18.70
2023-08-17T01:13:06.836Z,18.80
2023-08-17T01:15:56.436Z,18.90
2023-08-17T01:18:46.766Z,19.00
2023-08-17T01:21:28.220Z,19.00
2023-08-17T01:24:12.714Z,19.10
2023-08-17T01:26:49.626Z,19.20
2023-08-17T01:29:34.624Z,19.30
2023-08-17T01:32:28.731Z,19.40
2023-08-17T01:35:18.563Z,19.50
2023-08-17T01:38:08.964Z,19.60
2023-08-17T01:40:59.460Z,19.70
2023-08-17T01:43:41.488Z,19.80
2023-08-17T01:46:20.960Z,19.90
2023-08-17T01:49:02.446Z,19.90
2023-08-17T01:51:39.545Z,20.00
2023-08-17T01:54:19.401Z,20.10
2023-08-17T01:57:08.066Z,20.10
2023-08-17T01:59:55.892Z,20.20
2023-08-17T02:02:40.863Z,20.30
2023-08-17T02:05:20.548Z,20.40
2023-08-17T02:08:17.688Z,20.50
2023-08-17T02:11:02.099Z,20.60
2023-08-17T02:13:47.630Z,20.70
2023-08-17T02:16:24.204Z,20.70
2023-08-17T02:19:04.124Z,20.80
2023-08-17T02:21:42.890Z,20.90
2023-08-17T02:24:30.660Z,20.90
2023-08-17T02:27:17.474Z,21.00
2023-08-17T02:30:00.191Z,21.10
2023-08-17T02:32:37.565Z,21.20
2023-08-17T02:35:25.143Z,21.30
2023-08-17T02:38:01.296Z,21.40
2023-08-17T02:40:37.360Z,21.50
2023-08-17T02:43:36.694Z,21.50
2023-08-17T02:46:45.357Z,21.60
2023-08-17T02:49:32.137Z,21.80
2023-08-17T02:52:13.454Z,21.80
2023-08-17T02:55:03.298Z,21.90
2023-08-17T02:57:39.291Z,22.00
2023-08-17T03:00:20.576Z,22.20
2023-08-17T03:05:51.259Z,22.30
2023-08-17T03:08:32.495Z,22.40
2023-08-17T03:11:10.699Z,22.50
2023-08-17T03:13:57.007Z,22.60
2023-08-17T03:16:33.561Z,22.70
2023-08-17T03:19:15.382Z,22.70
2023-08-17T03:22:06.077Z,22.80
2023-08-17T03:24:44.949Z,22.80
2023-08-17T03:27:28.696Z,23.00
2023-08-17T03:30:22.522Z,23.10
2023-08-17T03:33:01.355Z,23.20
2023-08-17T03:35:41.197Z,23.30
2023-08-17T03:38:22.260Z,23.30
2023-08-17T03:41:09.666Z,23.40
2023-08-17T03:43:56.726Z,23.50
2023-08-17T03:46:43.228Z,23.50
2023-08-17T03:49:20.122Z,23.60
2023-08-17T03:52:13.273Z,23.60
2023-08-17T03:54:58.712Z,23.60
2023-08-17T03:57:39.612Z,23.70
2023-08-17T04:00:35.102Z,23.80
2023-08-17T04:03:18.030Z,23.90
2023-08-17T04:05:57.755Z,24.00
2023-08-17T04:08:41.298Z,24.00
2023-08-17T04:11:17.960Z,24.10
2023-08-17T04:14:04.286Z,24.20
2023-08-17T04:16:43.182Z,24.30
2023-08-17T04:19:33.563Z,24.40
2023-08-17T04:22:14.191Z,24.40
2023-08-17T04:24:58.856Z,24.40
2023-08-17T04:27:41.360Z,24.50
2023-08-17T04:30:23.267Z,24.50
2023-08-17T04:32:59.804Z,24.50
2023-08-17T04:35:42.001Z,24.50
2023-08-17T04:38:20.473Z,24.60
2023-08-17T04:41:00.093Z,24.60
2023-08-17T04:43:38.041Z,24.70
2023-08-17T04:49:13.609Z,24.80
2023-08-17T04:52:02.180Z,24.80
2023-08-17T04:54:49.589Z,24.90
2023-08-17T04:57:32.274Z,25.00
2023-08-17T05:03:09.794Z,25.10
2023-08-17T05:05:57.937Z,25.20
2023-08-17T05:08:39.609Z,25.30
2023-08-17T05:11:41.838Z,25.30
2023-08-17T05:14:38.983Z,25.50
2023-08-17T05:17:21.784Z,25.60
2023-08-17T05:20:13.014Z,25.60
2023-08-17T05:23:04.602Z,25.70
2023-08-17T05:25:51.682Z,25.70
2023-08-17T05:28:30.404Z,25.80
2023-08-17T05:31:22.973Z,25.90
2023-08-17T05:34:15.866Z,25.80
2023-08-17T05:37:05.210Z,25.80
2023-08-17T05:39:59.483Z,25.80
2023-08-17T05:42:35.510Z,25.90
2023-08-17T05:45:29.636Z,25.90
2023-08-17T05:48:48.565Z,26.00
2023-08-17T05:51:29.713Z,26.10
2023-08-17T05:54:06.440Z,26.20
2023-08-17T05:57:06.253Z,26.30
2023-08-17T06:00:21.675Z,26.40
2023-08-17T06:03:06.141Z,26.30
2023-08-17T06:06:09.947Z,26.40
2023-08-17T06:08:53.524Z,26.50
2023-08-17T06:11:39.053Z,26.50
2023-08-17T06:14:30.622Z,26.60
2023-08-17T06:17:10.981Z,26.60
2023-08-17T06:20:03.014Z,26.70
2023-08-17T06:23:00.836Z,26.70
2023-08-17T06:25:46.582Z,26.70
2023-08-17T06:31:16.473Z,26.80
2023-08-17T06:33:54.989Z,26.90
2023-08-17T06:36:56.131Z,26.90
2023-08-17T06:39:51.844Z,26.90
2023-08-17T06:42:31.100Z,27.00
2023-08-17T06:45:24.350Z,27.00
2023-08-17T06:48:21.461Z,27.00
2023-08-17T06:50:59.147Z,27.10
2023-08-17T06:53:41.456Z,27.20
2023-08-17T06:56:26.451Z,27.20
2023-08-17T06:59:03.008Z,27.20
2023-08-17T07:01:44.894Z,27.20
2023-08-17T07:04:26.971Z,27.20
2023-08-17T07:07:21.248Z,27.30
2023-08-17T07:10:03.082Z,27.30
2023-08-17T07:12:45.826Z,27.40
2023-08-17T07:15:36.596Z,27.40
2023-08-17T07:18:18.503Z,27.40
2023-08-17T07:23:57.496Z,27.50
2023-08-17T07:26:49.967Z,27.60
2023-08-17T07:29:49.022Z,27.60
2023-08-17T07:32:31.784Z,27.60
2023-08-17T07:35:13.214Z,27.60
2023-08-17T07:38:07.285Z,27.60
2023-08-17T07:41:03.686Z,27.60
2023-08-17T07:43:57.974Z,27.60
2023-08-17T07:50:00.737Z,27.70
2023-08-17T07:52:53.605Z,27.70
2023-08-17T07:55:43.585Z,27.70
2023-08-17T07:58:31.537Z,27.70
2023-08-17T08:01:14.261Z,27.80
2023-08-17T08:04:21.407Z,27.70
2023-08-17T08:07:01.728Z,27.80
2023-08-17T08:09:55.367Z,27.80
2023-08-17T08:12:40.576Z,27.80
2023-08-17T08:15:32.218Z,27.80
2023-08-17T08:18:20.040Z,27.80
2023-08-17T08:21:07.252Z,27.90
2023-08-17T08:23:47.716Z,27.80
2023-08-17T08:26:30.595Z,27.80
2023-08-17T08:29:07.231Z,27.90
2023-08-17T08:31:46.179Z,27.90
2023-08-17T08:34:30.088Z,27.90
2023-08-17T08:37:16.860Z,27.90
2023-08-17T08:40:04.852Z,27.90
2023-08-17T08:42:44.366Z,27.80
2023-08-17T08:45:20.200Z,27.80
2023-08-17T08:47:57.248Z,27.80
2023-08-17T08:50:48.664Z,27.70
2023-08-17T08:53:55.777Z,27.70
2023-08-17T08:56:34.582Z,27.70
2023-08-17T08:59:11.822Z,27.80
2023-08-17T09:01:55.267Z,27.80
2023-08-17T09:04:35.605Z,27.80
2023-08-17T09:07:15.690Z,27.80
2023-08-17T09:10:12.052Z,27.90
2023-08-17T09:12:51.896Z,27.80
2023-08-17T09:15:34.262Z,27.90
2023-08-17T09:18:16.407Z,27.90
2023-08-17T09:21:10.126Z,27.90
2023-08-17T09:24:18.203Z,27.80
2023-08-17T09:27:10.826Z,27.80
2023-08-17T09:30:13.410Z,27.90
2023-08-17T09:32:50.578Z,27.90
2023-08-17T09:35:28.075Z,27.90
2023-08-17T09:38:10.131Z,27.80
2023-08-17T09:40:52.032Z,27.80
2023-08-17T09:43:37.650Z,27.80
2023-08-17T09:46:19.537Z,27.80
2023-08-17T09:48:59.057Z,27.80
2023-08-17T09:51:43.215Z,27.70
2023-08-17T09:54:29.935Z,27.70
2023-08-17T09:57:22.590Z,27.70
2023-08-17T10:00:05.382Z,27.70
2023-08-17T10:02:47.972Z,27.70
2023-08-17T10:05:30.826Z,27.70
2023-08-17T10:08:09.784Z,27.60
2023-08-17T10:10:57.756Z,27.60
2023-08-17T10:13:45.789Z,27.60
2023-08-17T10:16:53.437Z,27.50
2023-08-17T10:19:58.781Z,27.40
2023-08-17T10:22:43.722Z,27.30
2023-08-17T10:25:20.810Z,27.20
2023-08-17T10:28:14.721Z,27.30
2023-08-17T10:30:51.015Z,27.10
2023-08-17T10:33:36.939Z,27.10
2023-08-17T10:36:34.044Z,27.10
2023-08-17T10:39:39.708Z,27.10
2023-08-17T10:42:22.417Z,27.00
2023-08-17T10:45:00.311Z,26.90
2023-08-17T10:47:41.632Z,26.80
2023-08-17T10:50:33.238Z,26.80
2023-08-17T10:53:16.284Z,26.80
2023-08-17T10:56:06.169Z,26.80
2023-08-17T10:58:55.809Z,26.70
2023-08-17T11:01:51.006Z,26.60
2023-08-17T11:04:34.288Z,26.60
2023-08-17T11:10:52.720Z,26.40
2023-08-17T11:13:32.939Z,26.30
2023-08-17T11:16:33.459Z,26.20
2023-08-17T11:19:15.909Z,26.20
2023-08-17T11:21:59.348Z,26.10
2023-08-17T11:24:45.718Z,26.10
2023-08-17T11:27:27.781Z,26.00
2023-08-17T11:30:20.756Z,25.90
2023-08-17T11:33:08.675Z,25.90
2023-08-17T11:35:52.437Z,25.90
2023-08-17T11:38:28.643Z,25.80
2023-08-17T11:41:22.289Z,25.80
2023-08-17T11:44:02.610Z,25.80
2023-08-17T11:50:19.937Z,25.70
2023-08-17T11:53:02.683Z,25.70
2023-08-17T11:55:40.832Z,25.60
2023-08-17T11:58:25.048Z,25.50
2023-08-17T12:01:06.235Z,25.50
2023-08-17T12:04:19.822Z,25.50
2023-08-17T12:06:58.616Z,25.50
2023-08-17T12:09:48.783Z,25.40
2023-08-17T12:12:34.540Z,25.40
2023-08-17T12:15:44.318Z,25.30
2023-08-17T12:18:26.840Z,25.30
2023-08-17T12:21:10.436Z,25.20
2023-08-17T12:26:44.440Z,25.10
2023-08-17T12:29:23.563Z,25.10
2023-08-17T12:32:26.384Z,25.00
2023-08-17T12:35:16.844Z,24.90
2023-08-17T12:37:54.197Z,24.80
2023-08-17T12:40:55.672Z,24.70
2023-08-17T12:43:41.362Z,24.70
2023-08-17T12:46:20.038Z,24.50
2023-08-17T12:49:22.235Z,24.40
2023-08-17T12:52:11.830Z,24.40
2023-08-17T12:54:52.986Z,24.30
2023-08-17T13:00:34.429Z,24.20
2023-08-17T13:03:15.977Z,24.10
2023-08-17T13:06:06.409Z,24.10
2023-08-17T13:08:42.158Z,24.10
2023-08-17T13:11:34.645Z,24.10
2023-08-17T13:14:11.882Z,24.00
2023-08-17T13:16:54.632Z,24.00
2023-08-17T13:19:34.018Z,24.00
2023-08-17T13:22:30.038Z,23.90
2023-08-17T13:27:56.595Z,23.80
2023-08-17T13:33:29.557Z,23.70
2023-08-17T13:36:33.754Z,23.70
2023-08-17T13:39:30.552Z,23.60
2023-08-17T13:42:13.047Z,23.60
2023-08-17T13:44:48.707Z,23.50
2023-08-17T13:47:38.392Z,23.50
2023-08-17T13:50:33.411Z,23.50
2023-08-17T13:53:16.629Z,23.50
2023-08-17T13:56:11.414Z,23.40
2023-08-17T13:58:50.859Z,23.40
2023-08-17T14:01:37.168Z,23.40
2023-08-17T14:04:22.729Z,23.40
2023-08-17T14:07:06.384Z,23.40
2023-08-17T14:09:57.898Z,23.40
2023-08-17T14:13:04.768Z,23.40
2023-08-17T14:15:48.713Z,23.40
2023-08-17T14:18:29.941Z,23.30
2023-08-17T14:21:07.558Z,23.30
2023-08-17T14:23:47.489Z,23.30
2023-08-17T14:26:35.176Z,23.30
2023-08-17T14:29:35.944Z,23.20
2023-08-17T14:32:18.183Z,23.20
2023-08-17T14:34:55.260Z,23.20
2023-08-17T14:37:56.959Z,23.20
2023-08-17T14:41:05.841Z,23.20
2023-08-17T14:43:43.515Z,23.20
2023-08-17T14:46:21.542Z,23.20
2023-08-17T14:49:06.306Z,23.20
2023-08-17T14:51:50.874Z,23.20
2023-08-17T14:57:23.259Z,23.20
2023-08-17T15:00:03.734Z,23.20
2023-08-17T15:02:46.881Z,23.20
2023-08-17T15:05:28.851Z,23.20
2023-08-17T15:08:11.089Z,23.20
2023-08-17T15:10:47.571Z,23.20
2023-08-17T15:13:25.335Z,23.20
2023-08-17T15:16:16.036Z,23.20
2023-08-17T15:19:08.660Z,23.10
2023-08-17T15:21:43.934Z,23.10
2023-08-17T15:24:30.642Z,23.10
2023-08-17T15:27:07.355Z,23.10
2023-08-17T15:30:02.561Z,23.10
2023-08-17T15:33:09.059Z,23.10
2023-08-17T15:35:51.163Z,23.00
2023-08-17T15:38:32.419Z,23.00
2023-08-17T15:41:10.546Z,22.90
2023-08-17T15:43:49.089Z,22.80
2023-08-17T15:46:31.407Z,22.70
2023-08-17T15:52:17.183Z,22.60
2023-08-17T15:54:54.450Z,22.50
2023-08-17T15:57:36.731Z,22.60
2023-08-17T16:00:35.621Z,22.50
2023-08-17T16:03:17.458Z,22.40
2023-08-17T16:05:57.780Z,22.40
2023-08-17T16:08:48.625Z,22.40
2023-08-17T16:14:18.971Z,22.30
2023-08-17T16:17:08.501Z,22.30
2023-08-17T16:19:46.964Z,22.20
2023-08-17T16:22:25.978Z,22.20
2023-08-17T16:25:12.216Z,22.20
2023-08-17T16:28:08.980Z,22.10
2023-08-17T16:30:48.774Z,22.10
2023-08-17T16:33:24.743Z,22.10
2023-08-17T16:36:04.746Z,22.10
2023-08-17T16:38:42.337Z,22.10
2023-08-17T16:44:15.852Z,22.10
2023-08-17T16:46:55.071Z,22.10
2023-08-17T16:49:30.953Z,22.10
2023-08-17T16:52:11.806Z,22.10
2023-08-17T16:54:50.206Z,22.10
2023-08-17T16:57:32.259Z,22.10
2023-08-17T17:00:12.532Z,22.10
2023-08-17T17:02:53.964Z,21.90
2023-08-17T17:05:32.101Z,21.90
2023-08-17T17:08:07.844Z,21.80
2023-08-17T17:11:02.037Z,21.80
2023-08-17T17:13:46.772Z,21.70
2023-08-17T17:16:24.782Z,21.70
2023-08-17T17:19:00.433Z,21.60
2023-08-17T17:21:37.023Z,21.60
2023-08-17T17:24:13.958Z,21.60
2023-08-17T17:26:54.104Z,21.50
2023-08-17T17:29:34.223Z,21.50
2023-08-17T17:32:09.524Z,21.40
2023-08-17T17:34:44.708Z,21.40
2023-08-17T17:37:26.953Z,21.30
2023-08-17T17:40:02.564Z,21.30
2023-08-17T17:42:39.426Z,21.20
2023-08-17T17:45:17.460Z,21.20
2023-08-17T17:47:56.471Z,21.10
2023-08-17T17:50:31.654Z,21.10
2023-08-17T17:53:11.065Z,21.10
2023-08-17T17:55:50.584Z,21.00
2023-08-17T17:58:27.502Z,21.00
2023-08-17T18:01:05.813Z,21.00
2023-08-17T18:03:43.504Z,21.00
2023-08-17T18:06:24.003Z,21.00
2023-08-17T18:09:02.355Z,21.00
2023-08-17T18:11:40.796Z,20.90
2023-08-17T18:14:20.604Z,20.90
2023-08-17T18:16:58.411Z,20.90
2023-08-17T18:19:35.696Z,20.90
2023-08-17T18:22:11.047Z,20.90
2023-08-17T18:25:02.049Z,20.90
2023-08-17T18:27:42.780Z,20.90
2023-08-17T18:30:18.139Z,20.90
2023-08-17T18:32:57.260Z,20.80
2023-08-17T18:35:32.745Z,20.80
2023-08-17T18:38:15.935Z,20.80
2023-08-17T18:40:54.269Z,20.80
2023-08-17T18:43:30.150Z,20.70
2023-08-17T18:46:05.314Z,20.70
2023-08-17T18:48:43.856Z,20.70
2023-08-17T18:51:19.217Z,20.60
2023-08-17T18:53:55.827Z,20.60
2023-08-17T18:56:30.684Z,20.60
2023-08-17T18:59:06.003Z,20.50
2023-08-17T19:01:41.180Z,20.50
2023-08-17T19:04:19.750Z,20.60
2023-08-17T19:06:56.170Z,20.50
2023-08-17T19:09:31.240Z,20.50
2023-08-17T19:12:06.380Z,20.50
2023-08-17T19:14:42.168Z,20.50
2023-08-17T19:17:17.156Z,20.40
2023-08-17T19:19:56.787Z,20.40
2023-08-17T19:22:32.104Z,20.40
2023-08-17T19:25:08.145Z,20.30
2023-08-17T19:27:43.047Z,20.30
2023-08-17T19:30:22.100Z,20.30
2023-08-17T19:33:13.646Z,20.30
2023-08-17T19:35:52.260Z,20.30
2023-08-17T19:38:33.498Z,20.30
2023-08-17T19:41:10.020Z,20.30
2023-08-17T19:43:45.468Z,20.30
2023-08-17T19:46:20.762Z,20.30
2023-08-17T19:48:56.494Z,20.30
2023-08-17T19:51:34.428Z,20.30
2023-08-17T19:54:10.048Z,20.30
2023-08-17T19:56:48.526Z,20.40
2023-08-17T19:59:24.879Z,20.30
2023-08-17T20:01:59.690Z,20.30
2023-08-17T20:04:35.574Z,20.20
2023-08-17T20:07:14.033Z,20.20
2023-08-17T20:09:49.622Z,20.20
2023-08-17T20:12:25.753Z,20.20
2023-08-17T20:15:00.737Z,20.20
2023-08-17T20:17:36.634Z,20.20
2023-08-17T20:20:18.404Z,20.30
2023-08-17T20:22:56.827Z,20.20
2023-08-17T20:25:31.914Z,20.20
2023-08-17T20:28:12.310Z,20.20
2023-08-17T20:30:50.730Z,20.20
2023-08-17T20:33:25.522Z,20.10
2023-08-17T20:36:01.827Z,20.10
2023-08-17T20:38:41.021Z,20.10
2023-08-17T20:41:16.236Z,20.00
2023-08-17T20:43:55.638Z,20.00
2023-08-17T20:46:34.527Z,19.90
2023-08-17T20:49:10.612Z,19.90
2023-08-17T20:51:45.618Z,19.90
2023-08-17T20:54:24.613Z,19.90
2023-08-17T20:56:59.487Z,19.90
2023-08-17T20:59:34.493Z,19.90
2023-08-17T21:02:15.063Z,19.90
2023-08-17T21:04:50.286Z,19.90
2023-08-17T21:07:27.604Z,19.90
2023-08-17T21:10:08.259Z,19.90
2023-08-17T21:12:44.120Z,19.90
2023-08-17T21:15:20.907Z,19.90
2023-08-17T21:17:56.449Z,19.90
2023-08-17T21:20:33.980Z,19.90
2023-08-17T21:23:09.619Z,19.90
2023-08-17T21:25:54.760Z,19.90
2023-08-17T21:28:30.060Z,19.90
2023-08-17T21:31:09.495Z,19.90
2023-08-17T21:33:45.065Z,19.90
2023-08-17T21:36:20.596Z,19.80
2023-08-17T21:38:55.394Z,19.80
2023-08-17T21:41:38.011Z,19.80
2023-08-17T21:44:13.725Z,19.70
2023-08-17T21:46:50.532Z,19.60
2023-08-17T21:49:25.948Z,19.60
2023-08-17T21:52:01.688Z,19.50
2023-08-17T21:54:37.150Z,19.60
2023-08-17T21:57:15.953Z,19.50
2023-08-17T21:59:53.408Z,19.50
2023-08-17T22:02:28.870Z,19.40
2023-08-17T22:05:10.160Z,19.40
2023-08-17T22:07:46.077Z,19.30
2023-08-17T22:10:25.394Z,19.20
2023-08-17T22:13:04.178Z,19.20
2023-08-17T22:15:41.489Z,19.10
2023-08-17T22:18:17.344Z,19.10
2023-08-17T22:20:52.857Z,19.10
2023-08-17T22:23:31.347Z,19.10
2023-08-17T22:26:07.214Z,19.10
2023-08-17T22:28:53.379Z,19.20
2023-08-17T22:31:32.974Z,19.20
2023-08-17T22:34:12.069Z,19.20
2023-08-17T22:36:58.429Z,19.20
2023-08-17T22:39:51.133Z,19.20
2023-08-17T22:42:30.907Z,19.20
2023-08-17T22:45:16.407Z,19.20
2023-08-17T22:47:55.953Z,19.20
2023-08-17T22:50:32.029Z,19.20
2023-08-17T22:53:10.648Z,19.20
2023-08-17T22:55:49.226Z,19.20
2023-08-17T22:58:25.835Z,19.20
2023-08-17T23:01:10.793Z,19.20
2023-08-17T23:03:59.658Z,19.20
2023-08-17T23:06:49.247Z,19.20
2023-08-17T23:09:28.514Z,19.20
2023-08-17T23:12:07.598Z,19.20
2023-08-17T23:15:01.072Z,19.20
2023-08-17T23:17:46.960Z,19.20
2023-08-17T23:20:39.257Z,19.20
2023-08-17T23:23:21.042Z,19.20
2023-08-17T23:25:56.647Z,19.10
2023-08-17T23:28:35.733Z,19.20
2023-08-17T23:31:13.150Z,19.10
2023-08-17T23:34:01.062Z,19.10
2023-08-17T23:36:48.562Z,19.10
2023-08-17T23:39:31.540Z,19.10
2023-08-17T23:42:08.347Z,19.10
2023-08-17T23:44:50.216Z,19.10
2023-08-17T23:47:34.096Z,19.10
2023-08-17T23:50:13.856Z,19.00
2023-08-17T23:52:57.866Z,19.00
2023-08-17T23:55:47.903Z,19.00
2023-08-17T23:58:26.984Z,19.00
